台北 の空港の天気 - METARとTAF

台湾桃園国際空港 ( RCTP / TPE ) - 台湾 台北市
飛行場実況気象(Metar)
観測時間05/28 09:00 CST (05/28 01:00 UTC)
風向・風速東北東 2m/s
視程10km以上
天気現象弱い雨
全天の4割程度の雲 雲底高度 240m
全天の8割程度の雲 雲底高度 370m
全天の8割程度の雲 雲底高度 760m
気温24℃
湿度94%
気圧1011hPa
METARRCTP 280100Z 06004KT 9999 -RA SCT008 BKN012 BKN025 24/23 Q1011 NOSIG RMK A2988 RA AMT 0.4MM
過去の天気等 Google飛行場航空写真 Wunderground天気予報

過去48時間のMETAR

飛行場予報(TAF)
発表時間: 5/28 07:00 CST (5/27 23:00 UTC)
予報対象時間: 28日8時 CST ~ 29日14時 CST
風向・風速北東 3m/s
視程10km以上
少しの雲 雲底高度 300m
全天の8割程度の雲 雲底高度 980m
28日8時 CST ~ 28日14時 CST に一時的に
風向・風速北東 5m/s
視程4000m
天気現象しゅう雨
全天の4割程度の雲 雲底高度 240m
全天の8割程度の雲 雲底高度 490m
少しの積乱雲 雲底高度 610m
全天の8割程度の雲 雲底高度 1220m
28日14時 CST ~ 28日20時 CST に一時的に
風向・風速東北東 5m/s
視程5000m
天気現象
少しの雲 雲底高度 300m
全天の8割程度の雲 雲底高度 550m
全天の8割程度の雲 雲底高度 1220m
28日20時 CST ~ 28日22時 CST に徐々に
風向・風速東 4m/s
29日6時 CST ~ 29日8時 CST に徐々に
風向・風速西南西 3m/s
29日8時 CST ~ 29日14時 CST に一時的に
風向・風速西北西 4m/s
TAF RCTP 272300Z 2800/2906 05005KT 9999 FEW010 BKN032
TEMPO 2800/2806 04010KT 4000 SHRA SCT008 BKN016 FEW020CB BKN040
TEMPO 2806/2812 06010KT 5000 RA FEW010 BKN018 BKN040
BECMG 2812/2814 10008KT
BECMG 2822/2824 24005KT
TEMPO 2900/2906 30007KT